Portada
METAR-TAF:

METAR-TAF

Aeroports :

Pattaya-Rayong, Tailàndia

latitud: 12-38N, longitud: 101-21E, altitud: 3 m

Observació

L'informe es va fer fa 34 minuts, a les 21:00 UTC
Vent 5 kt del Sud
Temperatura 27°C
Humitat 84%
Pressió 1011 hPa
Visibilitat: 9000 m
Escasses núvols a una alçada de 2000 ft
Núvols disperses a una alçada de 10000 ft

METAR: VTBU 012100Z 17005KT 9000 FEW020 SCT100 27/24 Q1011 NOSIG

Hora: 04:34 (21:34 UTC)

Pronòstic

L'informe es va fer fa 4 hores i 34 minuts, a les 17:00 UTC
Pronòstic vàlid del 01 a les 18 UTC al 02 a les 18 UTC
Vent 6 kt del Sud/Sud-Est
Visibilitat: 9000 m
Escasses núvols a una alçada de 2000 ft
Temporalment
l' 02 a les 03 UTC al 02 a les 08 UTC
Escasses núvols a una alçada de 2000 ft, Cumulonimbus.

TAF: VTBU 011700Z 0118/0218 16006KT 9000 FEW020 TEMPO 0203/0208 FEW020CB

Observacions i pronòstics meteorològics de més de 4000 aeroports (METAR i TAF).

Les estacions disponibles són els punts grocs i vermells al mapa.

Posi el ratolí al punt desitjat per veure el nom de l'estació.

Feu clic per veure les observacions i els pronòstics meteorològics.

Per canviar el mapa: feu clic els botons verds amb una creu de color negre per apropar; al botó verd amb un guió per allunyar la imatge; o en les fletxes verdes per a mapes adjacents.


METAR-TAF: